createdAt,value
2022-09-18T00:01:25.508Z,99611.59
2022-09-18T00:03:54.592Z,99597.28
2022-09-18T00:06:27.173Z,99596.28
2022-09-18T00:08:55.719Z,99591.69
2022-09-18T00:11:23.682Z,99599.16
2022-09-18T00:13:51.335Z,99591.69
2022-09-18T00:16:19.784Z,99587.53
2022-09-18T00:18:46.682Z,99595.84
2022-09-18T00:21:24.439Z,99591.25
2022-09-18T00:23:54.167Z,99600.38
2022-09-18T00:26:20.807Z,99602.03
2022-09-18T00:28:47.413Z,99602.25
2022-09-18T00:31:17.014Z,99597.88
2022-09-18T00:33:43.798Z,99590.22
2022-09-18T00:36:13.771Z,99598.31
2022-09-18T00:38:40.951Z,99601.63
2022-09-18T00:41:13.002Z,99601.44
2022-09-18T00:43:39.429Z,99597.25
2022-09-18T00:46:24.007Z,99603.28
2022-09-18T00:49:03.056Z,99599.75
2022-09-18T00:51:33.259Z,99593.94
2022-09-18T00:54:08.367Z,99595.44
2022-09-18T00:56:35.263Z,99581.69
2022-09-18T00:59:02.322Z,99599.94
2022-09-18T01:01:28.879Z,99597.66
2022-09-18T01:03:55.288Z,99598.31
2022-09-18T01:06:58.744Z,99599.31
2022-09-18T01:09:34.671Z,99593.94
2022-09-18T01:12:09.878Z,99589.38
2022-09-18T01:15:02.588Z,99601.19
2022-09-18T01:17:50.647Z,99587.97
2022-09-18T01:20:17.847Z,99592.47
2022-09-18T01:23:05.691Z,99593.53
2022-09-18T01:26:01.083Z,99588.34
2022-09-18T01:28:33.863Z,99591.03
2022-09-18T01:31:05.955Z,99592.72
2022-09-18T01:33:50.172Z,99591.03
2022-09-18T01:36:21.614Z,99582.31
2022-09-18T01:39:15.176Z,99588.53
2022-09-18T01:41:50.719Z,99570.09
2022-09-18T01:44:22.433Z,99578.78
2022-09-18T01:46:50.847Z,99580.66
2022-09-18T01:49:23.450Z,99580.88
2022-09-18T01:52:15.502Z,99563.88
2022-09-18T01:54:44.867Z,99565.53
2022-09-18T01:57:17.414Z,99558.06
2022-09-18T01:59:49.309Z,99570.53
2022-09-18T02:02:23.477Z,99567.84
2022-09-18T02:04:52.569Z,99567.63
2022-09-18T02:07:28.256Z,99563.28
2022-09-18T02:09:54.891Z,99561.59
2022-09-18T02:12:26.145Z,99557.28
2022-09-18T02:14:57.851Z,99554.59
2022-09-18T02:17:31.778Z,99555.19
2022-09-18T02:20:13.896Z,99555.59
2022-09-18T02:22:43.230Z,99564.72
2022-09-18T02:25:13.277Z,99541.31
2022-09-18T02:27:42.007Z,99548.75
2022-09-18T02:30:10.033Z,99550.63
2022-09-18T02:32:38.191Z,99545.25
2022-09-18T02:35:07.195Z,99540.91
2022-09-18T02:37:45.409Z,99540.91
2022-09-18T02:40:25.237Z,99528.28
2022-09-18T02:43:03.205Z,99529.31
2022-09-18T02:45:42.257Z,99534.91
2022-09-18T02:48:20.609Z,99533.88
2022-09-18T02:51:09.985Z,99531.19
2022-09-18T02:53:51.547Z,99536.56
2022-09-18T02:56:27.635Z,99527.84
2022-09-18T02:59:05.993Z,99534.06
2022-09-18T03:01:33.773Z,99514.56
2022-09-18T03:04:05.433Z,99526.41
2022-09-18T03:06:31.858Z,99517.06
2022-09-18T03:08:58.287Z,99535.28
2022-09-18T03:11:24.678Z,99529.09
2022-09-18T03:13:51.137Z,99528.28
2022-09-18T03:16:20.593Z,99529.28
2022-09-18T03:18:47.369Z,99523.06
2022-09-18T03:21:13.915Z,99531.97
2022-09-18T03:23:45.309Z,99524.25
2022-09-18T03:26:12.067Z,99535.47
2022-09-18T03:28:38.426Z,99531.97
2022-09-18T03:31:05.133Z,99534.44
2022-09-18T03:33:31.579Z,99530.53
2022-09-18T03:35:58.009Z,99534.88
2022-09-18T03:38:24.644Z,99529.50
2022-09-18T03:40:51.022Z,99534.03
2022-09-18T03:43:17.392Z,99536.72
2022-09-18T03:45:43.874Z,99529.50
2022-09-18T03:48:10.378Z,99534.25
2022-09-18T03:50:36.858Z,99524.09
2022-09-18T03:53:03.332Z,99533.22
2022-09-18T03:55:29.936Z,99532.38
2022-09-18T03:58:02.204Z,99527.19
2022-09-18T04:00:28.654Z,99526.19
2022-09-18T04:02:55.162Z,99525.34
2022-09-18T04:05:21.571Z,99518.31
2022-09-18T04:07:47.957Z,99505.81
2022-09-18T04:10:14.371Z,99520.19
2022-09-18T04:12:40.846Z,99509.56
2022-09-18T04:15:07.980Z,99521.19
2022-09-18T04:17:34.355Z,99510.38
2022-09-18T04:20:00.795Z,99514.75
2022-09-18T04:22:27.247Z,99523.25
2022-09-18T04:24:53.691Z,99527.81
2022-09-18T04:27:20.075Z,99528.63
2022-09-18T04:29:46.526Z,99521.56
2022-09-18T04:32:13.023Z,99522.44
2022-09-18T04:34:39.419Z,99519.75
2022-09-18T04:37:10.194Z,99496.72
2022-09-18T04:39:37.305Z,99513.69
2022-09-18T04:42:04.468Z,99507.47
2022-09-18T04:44:30.936Z,99517.44
2022-09-18T04:46:57.520Z,99510.16
2022-09-18T04:49:24.039Z,99507.69
2022-09-18T04:51:50.454Z,99510.38
2022-09-18T04:54:16.844Z,99498.38
2022-09-18T04:56:43.223Z,99501.47
2022-09-18T04:59:09.767Z,99487.56
2022-09-18T05:01:36.340Z,99503.75
2022-09-18T05:04:02.803Z,99505.41
2022-09-18T05:06:29.184Z,99495.91
2022-09-18T05:08:55.567Z,99493.22
2022-09-18T05:11:21.933Z,99499.41
2022-09-18T05:13:48.690Z,99497.94
2022-09-18T05:16:15.622Z,99499.59
2022-09-18T05:18:42.053Z,99498.09
2022-09-18T05:21:09.669Z,99505.78
2022-09-18T05:23:36.089Z,99499.56
2022-09-18T05:26:03.034Z,99502.47
2022-09-18T05:28:29.418Z,99504.34
2022-09-18T05:31:00.527Z,99507.84
2022-09-18T05:33:27.065Z,99499.16
2022-09-18T05:35:54.953Z,99512.41
2022-09-18T05:38:21.352Z,99504.53
2022-09-18T05:40:48.898Z,99501.00
2022-09-18T05:43:16.034Z,99505.97
2022-09-18T05:45:42.822Z,99507.22
2022-09-18T05:48:10.523Z,99505.97
2022-09-18T05:50:37.327Z,99511.78
2022-09-18T05:53:09.675Z,99505.56
2022-09-18T05:55:36.267Z,99492.28
2022-09-18T05:58:04.605Z,99494.00
2022-09-18T06:00:33.338Z,99497.06
2022-09-18T06:03:02.313Z,99495.88
2022-09-18T06:05:31.354Z,99499.56
2022-09-18T06:07:59.870Z,99476.56
2022-09-18T06:10:26.570Z,99495.88
2022-09-18T06:13:03.077Z,99499.38
2022-09-18T06:15:29.730Z,99500.38
2022-09-18T06:17:56.091Z,99501.25
2022-09-18T06:20:22.495Z,99495.00
2022-09-18T06:22:48.881Z,99499.56
2022-09-18T06:25:18.283Z,99504.31
2022-09-18T06:27:44.943Z,99497.06
2022-09-18T06:30:12.002Z,99508.44
2022-09-18T06:32:38.359Z,99505.97
2022-09-18T06:35:05.418Z,99500.34
2022-09-18T06:37:31.795Z,99507.78
2022-09-18T06:39:58.241Z,99499.09
2022-09-18T06:42:24.626Z,99519.41
2022-09-18T06:44:50.987Z,99514.22
2022-09-18T06:47:17.370Z,99513.78
2022-09-18T06:49:43.785Z,99519.78
2022-09-18T06:52:10.165Z,99528.69
2022-09-18T06:54:36.558Z,99511.06
2022-09-18T06:57:02.951Z,99532.22
2022-09-18T06:59:29.351Z,99527.03
2022-09-18T07:01:55.992Z,99535.09
2022-09-18T07:04:22.439Z,99532.41
2022-09-18T07:06:48.814Z,99528.44
2022-09-18T07:09:15.291Z,99539.66
2022-09-18T07:11:41.736Z,99542.53
2022-09-18T07:14:08.403Z,99543.34
2022-09-18T07:16:35.812Z,99547.06
2022-09-18T07:19:02.340Z,99536.31
2022-09-18T07:21:29.749Z,99547.06
2022-09-18T07:23:56.172Z,99540.25
2022-09-18T07:26:22.573Z,99531.72
2022-09-18T07:28:49.056Z,99540.88
2022-09-18T07:31:15.528Z,99536.06
2022-09-18T07:33:41.944Z,99541.69
2022-09-18T07:36:08.446Z,99534.41
2022-09-18T07:38:34.885Z,99541.88
2022-09-18T07:41:02.471Z,99544.56
2022-09-18T07:43:29.246Z,99541.88
2022-09-18T07:45:55.667Z,99526.75
2022-09-18T07:48:23.399Z,99543.75
2022-09-18T07:50:49.854Z,99535.69
2022-09-18T07:53:17.607Z,99533.00
2022-09-18T07:55:47.250Z,99523.84
2022-09-18T07:58:14.084Z,99529.50
2022-09-18T08:00:40.610Z,99532.19
2022-09-18T08:03:09.943Z,99533.00
2022-09-18T08:05:36.401Z,99523.84
2022-09-18T08:08:10.476Z,99531.97
2022-09-18T08:10:37.168Z,99517.47
2022-09-18T08:13:04.218Z,99486.13
2022-09-18T08:15:31.675Z,99531.31
2022-09-18T08:17:58.289Z,99531.59
2022-09-18T08:20:24.665Z,99510.25
2022-09-18T08:22:51.169Z,99535.72
2022-09-18T08:25:18.273Z,99538.22
2022-09-18T08:27:44.648Z,99531.81
2022-09-18T08:30:13.771Z,99528.50
2022-09-18T08:32:40.542Z,99538.44
2022-09-18T08:35:07.136Z,99540.09
2022-09-18T08:37:33.763Z,99530.63
2022-09-18T08:40:00.330Z,99537.44
2022-09-18T08:42:39.087Z,99540.34
2022-09-18T08:45:38.779Z,99544.28
2022-09-18T08:48:16.997Z,99539.09
2022-09-18T08:50:54.538Z,99529.53
2022-09-18T08:53:28.463Z,99538.41
2022-09-18T08:55:58.140Z,99553.50
2022-09-18T08:58:33.187Z,99561.78
2022-09-18T09:01:06.608Z,99546.00
2022-09-18T09:03:59.396Z,99558.84
2022-09-18T09:06:59.711Z,99555.72
2022-09-18T09:09:29.758Z,99564.66
2022-09-18T09:12:04.615Z,99576.84
2022-09-18T09:14:58.383Z,99576.84
2022-09-18T09:17:38.981Z,99580.59
2022-09-18T09:20:50.703Z,99595.31
2022-09-18T09:23:48.257Z,99578.91
2022-09-18T09:26:21.736Z,99543.22
2022-09-18T09:28:53.651Z,99592.59
2022-09-18T09:31:25.009Z,99596.13
2022-09-18T09:34:11.415Z,99593.44
2022-09-18T09:36:39.084Z,99590.53
2022-09-18T09:39:15.273Z,99592.19
2022-09-18T09:42:05.531Z,99603.59
2022-09-18T09:44:36.875Z,99598.03
2022-09-18T09:47:14.266Z,99601.53
2022-09-18T09:49:49.782Z,99605.69
2022-09-18T09:52:23.985Z,99603.81
2022-09-18T09:54:54.138Z,99612.72
2022-09-18T09:57:47.966Z,99616.25
2022-09-18T10:00:19.797Z,99623.47
2022-09-18T10:03:05.522Z,99621.81
2022-09-18T10:05:40.191Z,99622.84
2022-09-18T10:08:20.913Z,99599.84
2022-09-18T10:10:56.781Z,99598.84
2022-09-18T10:13:36.312Z,99616.03
2022-09-18T10:16:23.724Z,99619.56
2022-09-18T10:18:50.271Z,99612.16
2022-09-18T10:21:20.966Z,99614.91
2022-09-18T10:24:15.122Z,99616.59
2022-09-18T10:26:48.779Z,99618.06
2022-09-18T10:29:17.886Z,99635.13
2022-09-18T10:31:52.643Z,99630.16
2022-09-18T10:34:37.241Z,99631.63
2022-09-18T10:37:04.058Z,99636.56
2022-09-18T10:39:33.078Z,99651.47
2022-09-18T10:42:01.662Z,99650.63
2022-09-18T10:44:40.836Z,99618.75
2022-09-18T10:47:19.538Z,99641.50
2022-09-18T10:49:57.978Z,99636.69
2022-09-18T10:52:46.398Z,99628.94
2022-09-18T10:55:22.383Z,99641.38
2022-09-18T10:57:48.678Z,99642.22
2022-09-18T11:00:21.179Z,99639.38
2022-09-18T11:03:13.293Z,99642.06
2022-09-18T11:06:13.579Z,99609.78
2022-09-18T11:08:45.177Z,99639.91
2022-09-18T11:11:31.715Z,99656.13
2022-09-18T11:14:01.050Z,99650.75
2022-09-18T11:16:34.678Z,99652.44
2022-09-18T11:19:27.330Z,99650.38
2022-09-18T11:21:56.149Z,99646.69
2022-09-18T11:24:24.199Z,99646.28
2022-09-18T11:27:01.790Z,99648.63
2022-09-18T11:29:31.265Z,99639.47
2022-09-18T11:32:05.466Z,99618.84
2022-09-18T11:34:37.170Z,99654.88
2022-09-18T11:37:11.720Z,99658.22
2022-09-18T11:39:44.662Z,99657.00
2022-09-18T11:42:17.185Z,99660.31
2022-09-18T11:44:44.825Z,99660.16
2022-09-18T11:47:39.885Z,99666.16
2022-09-18T11:52:00.218Z,99662.59
2022-09-18T11:54:55.919Z,99658.91
2022-09-18T11:57:39.027Z,99662.59
2022-09-18T12:00:11.544Z,99663.41
2022-09-18T12:02:59.592Z,99662.34
2022-09-18T12:05:41.059Z,99663.31
2022-09-18T12:08:19.213Z,99665.72
2022-09-18T12:10:59.058Z,99666.84
2022-09-18T12:13:37.538Z,99664.44
2022-09-18T12:16:30.188Z,99665.34
2022-09-18T12:19:17.426Z,99664.13
2022-09-18T12:22:09.312Z,99672.25
2022-09-18T12:24:35.735Z,99659.41
2022-09-18T12:27:12.871Z,99665.03
2022-09-18T12:30:01.122Z,99673.13
2022-09-18T12:32:36.482Z,99669.41
2022-09-18T12:35:16.006Z,99669.22
2022-09-18T12:37:47.053Z,99673.31
2022-09-18T12:40:27.970Z,99675.66
2022-09-18T12:43:12.413Z,99679.38
2022-09-18T12:45:54.142Z,99685.84
2022-09-18T12:48:46.742Z,99683.97
2022-09-18T12:51:30.641Z,99682.50
2022-09-18T12:54:21.858Z,99691.41
2022-09-18T12:57:06.937Z,99697.34
2022-09-18T13:00:00.550Z,99700.91
2022-09-18T13:02:51.693Z,99699.44
2022-09-18T13:05:46.045Z,99700.50
2022-09-18T13:08:25.989Z,99706.44
2022-09-18T13:10:59.822Z,99706.44
2022-09-18T13:13:39.854Z,99702.53
2022-09-18T13:16:17.689Z,99707.91
2022-09-18T13:18:55.734Z,99711.06
2022-09-18T13:21:38.025Z,99713.16
2022-09-18T13:24:06.423Z,99712.91
2022-09-18T13:26:37.835Z,99707.34
2022-09-18T13:29:45.461Z,99719.41
2022-09-18T13:32:13.663Z,99718.72
2022-09-18T13:34:51.771Z,99724.78
2022-09-18T13:37:22.842Z,99717.94
2022-09-18T13:40:09.192Z,99721.47
2022-09-18T13:42:39.940Z,99731.63
2022-09-18T13:45:16.651Z,99731.47
2022-09-18T13:48:16.910Z,99735.41
2022-09-18T13:50:54.947Z,99738.94
2022-09-18T13:53:36.314Z,99740.38
2022-09-18T13:56:04.343Z,99732.47
2022-09-18T13:58:30.647Z,99736.84
2022-09-18T14:01:08.389Z,99735.22
2022-09-18T14:03:40.750Z,99742.69
2022-09-18T14:06:35.067Z,99746.22
2022-09-18T14:09:03.503Z,99743.06
2022-09-18T14:11:30.035Z,99739.75
2022-09-18T14:13:58.039Z,99745.78
2022-09-18T14:16:28.620Z,99703.69
2022-09-18T14:19:05.881Z,99756.19
2022-09-18T14:21:40.530Z,99758.91
2022-09-18T14:24:25.193Z,99759.69
2022-09-18T14:26:57.886Z,99774.00
2022-09-18T14:29:28.784Z,99777.75
2022-09-18T14:31:57.878Z,99779.81
2022-09-18T14:34:27.150Z,99780.00
2022-09-18T14:37:00.450Z,99781.66
2022-09-18T14:39:32.184Z,99790.59
2022-09-18T14:42:03.700Z,99798.06
2022-09-18T14:44:32.533Z,99791.78
2022-09-18T14:47:02.698Z,99805.69
2022-09-18T14:49:35.495Z,99802.63
2022-09-18T14:52:04.910Z,99810.44
2022-09-18T14:54:38.184Z,99802.56
2022-09-18T14:57:14.925Z,99817.72
2022-09-18T14:59:41.388Z,99810.63
2022-09-18T15:02:37.121Z,99812.97
2022-09-18T15:05:11.188Z,99820.44
2022-09-18T15:07:39.855Z,99823.31
2022-09-18T15:10:09.191Z,99815.84
2022-09-18T15:12:36.978Z,99818.53
2022-09-18T15:15:26.425Z,99826.03
2022-09-18T15:17:54.166Z,99828.28
2022-09-18T15:20:22.213Z,99837.19
2022-09-18T15:22:48.994Z,99829.28
2022-09-18T15:25:16.359Z,99838.66
2022-09-18T15:27:44.785Z,99850.06
2022-09-18T15:30:18.615Z,99853.81
2022-09-18T15:33:06.976Z,99850.53
2022-09-18T15:35:36.857Z,99850.50
2022-09-18T15:38:14.154Z,99851.53
2022-09-18T15:40:40.994Z,99857.09
2022-09-18T15:43:40.866Z,99853.66
2022-09-18T15:46:09.119Z,99855.66
2022-09-18T15:48:40.178Z,99857.34
2022-09-18T15:51:17.538Z,99861.75
2022-09-18T15:54:06.055Z,99866.75
2022-09-18T15:56:37.039Z,99866.44
2022-09-18T15:59:07.328Z,99872.94
2022-09-18T16:01:36.973Z,99873.75
2022-09-18T16:04:14.742Z,99884.34
2022-09-18T16:06:48.816Z,99884.53
2022-09-18T16:09:24.419Z,99887.66
2022-09-18T16:11:51.804Z,99883.22
2022-09-18T16:14:58.988Z,99902.19
2022-09-18T16:17:28.426Z,99903.81
2022-09-18T16:19:56.858Z,99899.00
2022-09-18T16:22:24.107Z,99896.69
2022-09-18T16:24:50.606Z,99903.53
2022-09-18T16:27:18.044Z,99906.22
2022-09-18T16:29:44.441Z,99900.84
2022-09-18T16:32:12.014Z,99905.25
2022-09-18T16:34:39.009Z,99900.03
2022-09-18T16:37:08.128Z,99896.69
2022-09-18T16:39:35.450Z,99916.84
2022-09-18T16:42:14.421Z,99914.00
2022-09-18T16:44:40.819Z,99912.66
2022-09-18T16:47:09.604Z,99917.22
2022-09-18T16:49:39.679Z,99925.94
2022-09-18T16:52:06.186Z,99923.63
2022-09-18T16:54:33.037Z,99930.06
2022-09-18T16:57:23.615Z,99936.53
2022-09-18T16:59:50.696Z,99943.53
2022-09-18T17:02:20.454Z,99949.53
2022-09-18T17:04:48.954Z,99941.84
2022-09-18T17:07:15.334Z,99944.53
2022-09-18T17:09:41.966Z,99949.09
2022-09-18T17:12:08.558Z,99948.28
2022-09-18T17:14:34.951Z,99946.59
2022-09-18T17:17:01.439Z,99948.03
2022-09-18T17:19:27.885Z,99953.84
2022-09-18T17:21:54.273Z,99960.91
2022-09-18T17:24:26.133Z,99962.75
2022-09-18T17:26:53.850Z,99960.06
2022-09-18T17:29:21.297Z,99964.44
2022-09-18T17:31:47.734Z,99971.69
2022-09-18T17:34:16.462Z,99975.22
2022-09-18T17:36:42.833Z,99978.91
2022-09-18T17:39:09.312Z,99980.78
2022-09-18T17:41:35.744Z,99974.56
2022-09-18T17:44:02.518Z,99989.50
2022-09-18T17:46:28.970Z,99998.41
2022-09-18T17:48:56.658Z,99997.78
2022-09-18T17:51:28.377Z,99999.03
2022-09-18T17:54:02.590Z,100017.97
2022-09-18T17:56:32.534Z,99983.97
2022-09-18T17:59:01.609Z,100021.63
2022-09-18T18:01:29.359Z,100018.94
2022-09-18T18:03:57.181Z,100025.16
2022-09-18T18:06:24.255Z,100034.91
2022-09-18T18:08:51.362Z,100026.19
2022-09-18T18:11:22.073Z,100037.81
2022-09-18T18:13:49.873Z,100039.44
2022-09-18T18:16:23.034Z,100046.16
2022-09-18T18:18:51.303Z,100038.38
2022-09-18T18:21:18.656Z,100046.53
2022-09-18T18:23:45.647Z,100037.63
2022-09-18T18:26:12.092Z,100037.81
2022-09-18T18:28:40.516Z,100046.53
2022-09-18T18:31:12.442Z,100061.09
2022-09-18T18:33:42.470Z,100059.97
2022-09-18T18:36:16.489Z,100072.91
2022-09-18T18:38:44.108Z,100071.22
2022-09-18T18:41:12.346Z,100077.38
2022-09-18T18:43:42.866Z,100072.63
2022-09-18T18:46:12.790Z,100079.84
2022-09-18T18:48:40.730Z,100074.47
2022-09-18T18:51:09.701Z,100078.63
2022-09-18T18:53:36.187Z,100079.22
2022-09-18T18:56:05.423Z,100088.56
2022-09-18T18:58:32.391Z,100081.25
2022-09-18T19:01:08.937Z,100098.59
2022-09-18T19:03:39.855Z,100087.28
2022-09-18T19:06:06.652Z,100102.44
2022-09-18T19:08:35.578Z,100109.47
2022-09-18T19:11:03.788Z,100110.34
2022-09-18T19:13:30.870Z,100112.56
2022-09-18T19:15:57.294Z,100110.88
2022-09-18T19:18:23.783Z,100113.59
2022-09-18T19:20:53.481Z,100124.00
2022-09-18T19:23:19.931Z,100110.06
2022-09-18T19:25:46.593Z,100124.00
2022-09-18T19:28:15.431Z,100121.47
2022-09-18T19:30:42.157Z,100125.84
2022-09-18T19:33:14.842Z,100137.38
2022-09-18T19:35:41.647Z,100137.47
2022-09-18T19:38:08.382Z,100142.03
2022-09-18T19:40:38.157Z,100147.00
2022-09-18T19:43:12.408Z,100146.81
2022-09-18T19:45:39.229Z,100140.53
2022-09-18T19:48:11.257Z,100149.69
2022-09-18T19:50:39.226Z,100161.06
2022-09-18T19:53:05.626Z,100148.81
2022-09-18T19:55:32.141Z,100157.31
2022-09-18T19:57:59.653Z,100162.72
2022-09-18T20:00:26.753Z,100157.53
2022-09-18T20:02:57.934Z,100157.59
2022-09-18T20:05:24.419Z,100168.31
2022-09-18T20:07:50.865Z,100169.13
2022-09-18T20:10:17.604Z,100164.13
2022-09-18T20:12:44.042Z,100175.75
2022-09-18T20:15:11.678Z,100175.75
2022-09-18T20:17:38.317Z,100191.91
2022-09-18T20:20:08.829Z,100184.47
2022-09-18T20:22:38.323Z,100184.66
2022-09-18T20:25:05.037Z,100198.13
2022-09-18T20:27:36.134Z,100196.53
2022-09-18T20:30:04.337Z,100200.16
2022-09-18T20:32:30.868Z,100194.13
2022-09-18T20:34:58.193Z,100198.50
2022-09-18T20:37:25.919Z,100210.75
2022-09-18T20:39:52.797Z,100211.13
2022-09-18T20:42:19.194Z,100214.69
2022-09-18T20:44:46.170Z,100214.47
2022-09-18T20:47:12.568Z,100214.03
2022-09-18T20:49:40.090Z,100233.31
2022-09-18T20:52:10.285Z,100229.78
2022-09-18T20:54:39.219Z,100216.50
2022-09-18T20:57:08.977Z,100223.75
2022-09-18T20:59:35.730Z,100221.06
2022-09-18T21:02:02.149Z,100214.03
2022-09-18T21:04:29.034Z,100226.28
2022-09-18T21:06:56.198Z,100229.78
2022-09-18T21:09:26.366Z,100229.63
2022-09-18T21:11:53.425Z,100230.19
2022-09-18T21:14:21.055Z,100229.34
2022-09-18T21:16:48.041Z,100238.06
2022-09-18T21:19:19.235Z,100237.06
2022-09-18T21:21:47.883Z,100241.41
2022-09-18T21:24:14.653Z,100239.09
2022-09-18T21:26:43.305Z,100238.91
2022-09-18T21:29:25.112Z,100225.06
2022-09-18T21:31:54.533Z,100238.69
2022-09-18T21:34:30.028Z,100241.59
2022-09-18T21:37:11.347Z,100242.50
2022-09-18T21:39:38.890Z,100246.53
2022-09-18T21:42:07.446Z,100241.59
2022-09-18T21:44:37.837Z,100243.66
2022-09-18T21:47:06.742Z,100242.78
2022-09-18T21:49:34.029Z,100242.78
2022-09-18T21:52:03.910Z,100247.00
2022-09-18T21:54:33.942Z,100243.00
2022-09-18T21:57:01.050Z,100243.66
2022-09-18T21:59:30.499Z,100251.72
2022-09-18T22:01:58.216Z,100249.03
2022-09-18T22:04:27.036Z,100256.25
2022-09-18T22:06:55.389Z,100258.13
2022-09-18T22:09:24.686Z,100264.16
2022-09-18T22:11:51.965Z,100257.47
2022-09-18T22:14:22.739Z,100262.28
2022-09-18T22:16:50.263Z,100267.91
2022-09-18T22:19:17.355Z,100261.84
2022-09-18T22:21:46.703Z,100265.19
2022-09-18T22:24:19.095Z,100267.03
2022-09-18T22:26:58.175Z,100269.63
2022-09-18T22:29:34.149Z,100270.84
2022-09-18T22:32:01.019Z,100267.59
2022-09-18T22:34:30.192Z,100263.50
2022-09-18T22:36:58.605Z,100268.91
2022-09-18T22:39:25.277Z,100268.25
2022-09-18T22:41:52.112Z,100270.13
2022-09-18T22:44:21.311Z,100267.59
2022-09-18T22:46:49.056Z,100280.06
2022-09-18T22:49:17.310Z,100283.59
2022-09-18T22:51:45.218Z,100281.06
2022-09-18T22:54:13.462Z,100286.09
2022-09-18T22:56:45.169Z,100287.09
2022-09-18T22:59:13.474Z,100283.41
2022-09-18T23:01:51.061Z,100284.50
2022-09-18T23:04:19.172Z,100286.28
2022-09-18T23:06:47.682Z,100287.94
2022-09-18T23:09:15.293Z,100286.47
2022-09-18T23:11:43.178Z,100286.66
2022-09-18T23:14:13.974Z,100279.69
2022-09-18T23:16:40.661Z,100287.50
2022-09-18T23:19:12.977Z,100290.84
2022-09-18T23:21:39.622Z,100285.16
2022-09-18T23:24:09.147Z,100287.50
2022-09-18T23:26:39.131Z,100295.56
2022-09-18T23:29:08.281Z,100287.03
2022-09-18T23:31:38.053Z,100294.53
2022-09-18T23:34:10.315Z,100295.38
2022-09-18T23:36:39.360Z,100295.56
2022-09-18T23:39:10.241Z,100294.53
2022-09-18T23:41:38.030Z,100284.50
2022-09-18T23:44:06.593Z,100294.94
2022-09-18T23:46:33.222Z,100295.09
2022-09-18T23:48:59.985Z,100295.09
2022-09-18T23:51:33.342Z,100293.88
2022-09-18T23:54:01.657Z,100295.94
2022-09-18T23:56:31.101Z,100293.25
2022-09-18T23:59:00.253Z,100294.94
